Time;durP1;ratioP1;P1;durP2;ratioP2;P2;SDS_P1;SDS_P2;PMS_P1;PMS_P2;Temp;Humidity;BMP_temperature;BMP_pressure;BME280_temperature;BME280_humidity;BME280_pressure;Samples;Min_cycle;Max_cycle;Signal;HPM_P1;HPM_P2
2022/04/19 00:00:20;;;;;;;1.80;1.70;;;;;;;9.44;45.38;101396.69;4965381;28;96632;-85
2022/04/19 00:02:45;;;;;;;2.10;1.90;;;;;;;9.39;45.27;101398.06;4969250;28;99570;-84
2022/04/19 00:05:11;;;;;;;2.70;2.20;;;;;;;9.36;45.50;101393.53;4973324;28;97085;-84
2022/04/19 00:07:37;;;;;;;1.60;1.50;;;;;;;9.32;45.69;101390.19;4969175;28;96881;-84
2022/04/19 00:10:04;;;;;;;1.80;1.50;;;;;;;9.26;45.68;101435.97;4966989;28;97032;-84
2022/04/19 00:12:29;;;;;;;2.30;1.60;;;;;;;9.23;45.56;101400.44;4962606;28;99221;-84
2022/04/19 00:14:55;;;;;;;2.63;2.03;;;;;;;9.20;45.86;101395.88;4966852;28;96983;-84
2022/04/19 00:17:21;;;;;;;2.23;1.97;;;;;;;9.16;45.77;101392.56;4973117;28;96583;-84
2022/04/19 00:19:47;;;;;;;1.53;1.43;;;;;;;9.14;45.88;101384.03;4967117;28;96961;-85
2022/04/19 00:22:12;;;;;;;3.10;2.10;;;;;;;9.16;45.90;101381.56;4965278;28;99829;-85
2022/04/19 00:24:38;;;;;;;1.90;1.80;;;;;;;9.15;45.95;101385.56;4968202;28;97653;-84
2022/04/19 00:27:04;;;;;;;2.30;2.10;;;;;;;9.13;46.11;101391.47;4971990;28;97005;-85
2022/04/19 00:29:29;;;;;;;2.10;1.90;;;;;;;9.02;46.12;101381.00;4981986;28;96744;-84
2022/04/19 00:31:55;;;;;;;1.90;1.80;;;;;;;9.06;46.11;101394.59;4969953;28;98057;-85
2022/04/19 00:34:20;;;;;;;2.30;2.10;;;;;;;9.03;46.50;101379.03;4969212;28;97790;-85
2022/04/19 00:36:45;;;;;;;2.57;2.37;;;;;;;8.96;46.38;101377.38;4975663;28;96946;-84
2022/04/19 00:39:11;;;;;;;2.20;2.00;;;;;;;8.87;46.39;101382.91;4979448;28;96871;-84
2022/04/19 00:41:36;;;;;;;1.70;1.60;;;;;;;8.85;46.53;101366.13;4964361;28;98681;-84
2022/04/19 00:44:01;;;;;;;3.80;2.20;;;;;;;8.89;46.57;101374.97;4964780;28;98778;-84
2022/04/19 00:46:27;;;;;;;2.27;2.03;;;;;;;8.88;46.58;101380.91;4962505;28;96812;-84
2022/04/19 00:48:52;;;;;;;2.03;1.83;;;;;;;8.86;46.53;101375.13;4970844;28;96909;-84
2022/04/19 00:51:19;;;;;;;2.97;1.97;;;;;;;8.87;46.76;101371.16;4971112;28;98468;-85
2022/04/19 00:53:47;;;;;;;3.67;2.07;;;;;;;8.79;46.73;101361.75;4970625;28;98377;-86
2022/04/19 00:56:12;;;;;;;2.53;1.97;;;;;;;8.78;46.82;101369.19;4961487;28;97109;-85
2022/04/19 00:58:38;;;;;;;4.53;1.67;;;;;;;8.75;46.93;101375.63;4964000;28;97384;-85
2022/04/19 01:01:03;;;;;;;1.50;1.40;;;;;;;8.75;46.98;101369.38;4965329;28;99758;-84
2022/04/19 01:03:29;;;;;;;1.80;1.70;;;;;;;8.71;47.10;101366.81;4968270;28;97658;-84
2022/04/19 01:05:55;;;;;;;2.33;2.13;;;;;;;8.68;47.09;101378.69;4974456;28;96685;-84
2022/04/19 01:08:22;;;;;;;1.60;1.50;;;;;;;8.65;47.13;101376.13;4960933;28;98871;-84
2022/04/19 01:10:48;;;;;;;1.87;1.77;;;;;;;8.62;47.31;101363.31;4962960;28;97488;-84
2022/04/19 01:13:17;;;;;;;2.20;1.87;;;;;;;8.58;47.60;101371.72;4973218;28;96850;-84
2022/04/19 01:15:48;;;;;;;2.10;1.90;;;;;;;8.55;48.28;101372.63;4980623;28;96878;-84
2022/04/19 01:18:14;;;;;;;2.10;1.90;;;;;;;8.52;47.67;101370.78;4974938;28;96527;-84
2022/04/19 01:20:42;;;;;;;1.93;1.70;;;;;;;8.52;47.65;101368.06;4975769;28;99173;-84
2022/04/19 01:23:07;;;;;;;1.73;1.63;;;;;;;8.53;47.79;101366.06;4978042;28;96897;-84
2022/04/19 01:25:33;;;;;;;2.27;2.07;;;;;;;8.50;47.54;101370.50;4985826;28;97016;-84
2022/04/19 01:27:58;;;;;;;3.60;2.33;;;;;;;8.49;47.67;101368.22;4988649;28;96897;-84
2022/04/19 01:30:24;;;;;;;2.57;1.93;;;;;;;8.46;47.80;101375.38;4986390;28;99718;-85
2022/04/19 01:32:49;;;;;;;2.37;1.73;;;;;;;8.48;47.71;101356.50;4992313;28;98302;-84
2022/04/19 01:35:17;;;;;;;2.10;1.90;;;;;;;8.51;47.99;101357.56;4977322;28;96562;-83
2022/04/19 01:37:48;;;;;;;1.87;1.70;;;;;;;8.48;48.24;101353.75;4979111;28;96518;-85
2022/04/19 01:40:16;;;;;;;1.63;1.37;;;;;;;8.52;47.65;101361.81;4974414;28;98563;-83
2022/04/19 01:42:50;;;;;;;2.63;2.00;;;;;;;8.53;47.78;101361.38;4985905;28;98369;-84
2022/04/19 01:45:17;;;;;;;2.80;2.07;;;;;;;8.53;47.89;101366.06;4971650;28;97232;-82
2022/04/19 01:47:43;;;;;;;2.00;1.87;;;;;;;8.51;47.93;101374.00;4958493;28;96860;-84
2022/04/19 01:50:10;;;;;;;2.70;2.10;;;;;;;8.51;47.89;101372.03;4964733;28;97940;-86
2022/04/19 01:52:40;;;;;;;2.00;1.80;;;;;;;8.51;48.26;101376.75;4973123;28;99309;-86
2022/04/19 01:55:13;;;;;;;2.10;1.90;;;;;;;8.50;48.27;101359.53;4967875;28;96966;-85
2022/04/19 01:57:38;;;;;;;2.50;2.30;;;;;;;8.49;47.86;101360.75;4963709;28;97149;-85
2022/04/19 02:00:05;;;;;;;3.10;2.63;;;;;;;8.49;48.04;101376.44;4969082;28;98486;-85
2022/04/19 02:02:31;;;;;;;3.20;2.63;;;;;;;8.46;47.79;101386.34;4978252;28;97897;-85
2022/04/19 02:04:56;;;;;;;2.33;2.13;;;;;;;8.44;48.00;101358.63;4975795;28;97242;-85
2022/04/19 02:07:21;;;;;;;2.77;2.50;;;;;;;8.36;48.02;101354.69;4970962;28;97191;-85
2022/04/19 02:09:47;;;;;;;2.57;2.23;;;;;;;8.34;48.16;101362.63;4966371;28;98586;-85
2022/04/19 02:12:13;;;;;;;2.23;1.97;;;;;;;8.30;48.09;101351.78;4966080;28;99571;-85
2022/04/19 02:14:41;;;;;;;3.30;2.40;;;;;;;8.26;48.17;101361.41;4977932;28;96976;-85
2022/04/19 02:17:09;;;;;;;2.53;1.90;;;;;;;8.21;48.36;101345.56;4964989;28;97383;-85
2022/04/19 02:19:35;;;;;;;3.50;2.10;;;;;;;8.12;48.45;101364.75;4966570;28;98199;-85
2022/04/19 02:22:02;;;;;;;3.30;2.30;;;;;;;8.13;48.57;101347.06;4953726;28;99792;-86
2022/04/19 02:24:27;;;;;;;2.80;2.17;;;;;;;8.13;48.54;101352.53;4978728;28;97519;-85
2022/04/19 02:26:54;;;;;;;3.93;2.30;;;;;;;8.10;48.68;101342.50;4979303;28;97013;-85
2022/04/19 02:29:19;;;;;;;3.70;2.20;;;;;;;8.09;48.67;101349.19;4969248;28;97615;-85
2022/04/19 02:31:45;;;;;;;3.77;2.33;;;;;;;8.09;48.78;101352.72;4975569;28;97258;-85
2022/04/19 02:34:10;;;;;;;3.67;2.50;;;;;;;8.07;48.51;101346.94;4968426;28;96883;-85
2022/04/19 02:36:36;;;;;;;2.50;2.10;;;;;;;8.07;48.71;101348.91;4968443;28;96981;-84
2022/04/19 02:39:01;;;;;;;3.57;2.43;;;;;;;8.00;48.53;101360.16;4980036;28;100131;-85
2022/04/19 02:41:28;;;;;;;4.60;2.10;;;;;;;7.96;48.78;101349.38;4971998;28;97023;-85
2022/04/19 02:43:53;;;;;;;2.30;2.07;;;;;;;7.92;48.76;101362.47;4961160;28;97108;-82
2022/04/19 02:46:18;;;;;;;4.30;2.40;;;;;;;7.88;48.94;101361.09;4970538;28;96814;-85
2022/04/19 02:48:44;;;;;;;5.60;2.50;;;;;;;7.84;49.06;101346.78;4970906;28;97938;-85
2022/04/19 02:51:09;;;;;;;2.87;2.40;;;;;;;7.85;49.01;101351.78;4976012;28;98883;-85
2022/04/19 02:53:36;;;;;;;5.00;1.90;;;;;;;7.84;48.95;101360.47;4968315;28;97156;-85
2022/04/19 02:56:03;;;;;;;2.83;2.43;;;;;;;7.81;49.01;101353.16;4964595;28;97017;-85
2022/04/19 02:58:29;;;;;;;2.83;2.63;;;;;;;7.79;48.94;101355.59;4972155;28;97952;-85
2022/04/19 03:00:55;;;;;;;3.37;2.40;;;;;;;7.74;49.20;101351.47;4967492;28;98544;-85
2022/04/19 03:03:20;;;;;;;2.23;2.10;;;;;;;7.72;49.33;101353.91;4976130;28;97336;-85
2022/04/19 03:05:46;;;;;;;2.67;2.37;;;;;;;7.74;49.04;101353.47;4978531;28;96620;-85
2022/04/19 03:08:12;;;;;;;2.37;2.17;;;;;;;7.69;49.10;101346.59;4974100;28;99831;-85
2022/04/19 03:10:37;;;;;;;2.80;2.20;;;;;;;7.66;49.15;101363.19;4977557;28;98330;-85
2022/04/19 03:13:02;;;;;;;2.10;1.90;;;;;;;7.65;49.23;101350.69;4966610;28;97371;-85
2022/04/19 03:15:28;;;;;;;2.50;2.30;;;;;;;7.65;49.38;101350.69;4974516;28;97251;-86
2022/04/19 03:17:53;;;;;;;1.77;1.67;;;;;;;7.63;49.49;101364.84;4977438;28;98245;-85
2022/04/19 03:20:19;;;;;;;2.50;2.30;;;;;;;7.58;49.35;101355.25;4972460;28;99743;-84
2022/04/19 03:28:12;;;;;;;3.27;2.50;;;;;;;7.44;49.61;101364.06;4968130;28;97076;-85
2022/04/19 03:30:38;;;;;;;3.30;2.10;;;;;;;7.39;49.85;101361.16;4970585;28;98356;-85
2022/04/19 03:33:05;;;;;;;3.13;2.57;;;;;;;7.33;49.70;101350.06;4968459;28;97095;-86
2022/04/19 03:35:30;;;;;;;2.50;2.30;;;;;;;7.28;49.72;101358.84;4966990;28;97301;-85
2022/04/19 03:37:56;;;;;;;3.00;2.20;;;;;;;7.28;50.20;101361.59;4969902;28;96897;-85
2022/04/19 03:40:22;;;;;;;5.43;2.97;;;;;;;7.23;50.22;101362.16;4965922;28;98140;-85
2022/04/19 03:42:54;;;;;;;2.90;2.50;;;;;;;7.22;50.95;101368.88;4962208;28;96853;-82
2022/04/19 03:45:19;;;;;;;2.37;2.17;;;;;;;7.20;49.98;101376.00;4955852;28;97023;-83
2022/04/19 03:47:45;;;;;;;2.40;2.20;;;;;;;7.22;50.08;101377.09;4962319;28;96978;-83
2022/04/19 03:50:10;;;;;;;2.77;1.90;;;;;;;7.24;50.11;101371.91;4970215;28;97600;-82
2022/04/19 03:52:36;;;;;;;2.50;2.30;;;;;;;7.23;50.10;101381.31;4968766;28;97076;-82
2022/04/19 03:55:02;;;;;;;1.97;1.87;;;;;;;7.22;49.97;101379.06;4963046;28;97214;-82
2022/04/19 03:57:28;;;;;;;2.37;2.07;;;;;;;7.23;50.19;101384.06;4965871;28;97976;-85
2022/04/19 03:59:53;;;;;;;3.57;2.30;;;;;;;7.25;50.10;101367.97;4970102;28;97388;-85
2022/04/19 04:02:19;;;;;;;3.03;2.33;;;;;;;7.23;49.89;101369.66;4983770;28;96890;-85
2022/04/19 04:04:44;;;;;;;3.97;2.60;;;;;;;7.17;49.88;101369.47;4976338;28;97083;-85
2022/04/19 04:07:09;;;;;;;3.17;2.40;;;;;;;7.15;50.06;101360.94;4973211;28;99605;-86
2022/04/19 04:09:35;;;;;;;4.90;2.77;;;;;;;7.15;50.11;101365.66;4959214;28;99344;-85
2022/04/19 04:12:13;;;;;;;3.17;2.43;;;;;;;7.16;51.02;101370.69;4971504;28;97174;-85
2022/04/19 04:14:41;;;;;;;2.47;2.27;;;;;;;7.11;49.91;101365.78;4978097;28;97425;-85
2022/04/19 04:17:06;;;;;;;2.70;2.47;;;;;;;7.07;50.38;101372.63;4963000;28;96823;-84
2022/04/19 04:19:32;;;;;;;3.00;2.40;;;;;;;7.03;50.65;101367.28;4945548;28;97216;-85
2022/04/19 04:21:57;;;;;;;2.70;2.47;;;;;;;7.00;50.38;101375.63;4951379;28;96717;-85
2022/04/19 04:24:23;;;;;;;2.40;2.20;;;;;;;6.95;50.43;101371.50;4965366;28;97273;-85
2022/04/19 04:26:48;;;;;;;2.30;2.10;;;;;;;6.94;50.51;101383.66;4966290;28;97702;-85
2022/04/19 04:29:13;;;;;;;3.10;2.50;;;;;;;6.93;50.72;101379.38;4963596;28;98124;-85
2022/04/19 04:31:39;;;;;;;3.50;2.57;;;;;;;6.89;50.68;101384.25;4964490;28;96840;-85
2022/04/19 04:34:05;;;;;;;4.93;2.50;;;;;;;6.91;50.59;101379.09;4964379;28;97263;-85
2022/04/19 04:36:31;;;;;;;3.37;2.63;;;;;;;6.91;50.71;101365.41;4965281;28;97866;-85
2022/04/19 04:38:56;;;;;;;2.20;1.87;;;;;;;6.92;50.26;101372.41;4965756;28;96665;-85
2022/04/19 04:41:21;;;;;;;2.20;2.10;;;;;;;6.89;50.78;101384.25;4968024;28;97402;-85
2022/04/19 04:43:47;;;;;;;2.30;2.10;;;;;;;6.90;50.45;101368.59;4974295;28;97272;-85
2022/04/19 04:51:40;;;;;;;3.93;2.53;;;;;;;6.86;50.49;101381.66;4975927;28;96768;-86
2022/04/19 04:54:06;;;;;;;3.30;3.00;;;;;;;6.82;50.65;101390.75;4973311;28;97266;-84
2022/04/19 04:56:31;;;;;;;2.90;2.40;;;;;;;6.84;50.79;101414.91;4968222;28;97568;-85
2022/04/19 04:58:56;;;;;;;4.80;2.87;;;;;;;6.85;51.10;101385.59;4971934;28;97378;-85
2022/04/19 05:01:22;;;;;;;3.03;2.50;;;;;;;6.85;50.75;101397.28;4968349;28;96659;-85
2022/04/19 05:03:48;;;;;;;3.03;2.50;;;;;;;6.85;51.02;101386.34;4962302;28;96793;-84
2022/04/19 05:06:13;;;;;;;3.30;3.00;;;;;;;6.87;50.69;101383.16;4971893;28;100114;-85
2022/04/19 05:08:39;;;;;;;3.17;2.87;;;;;;;6.88;50.93;101398.38;4964945;28;97009;-84
2022/04/19 05:11:04;;;;;;;2.40;2.20;;;;;;;6.88;50.87;101393.63;4966373;28;96659;-85
2022/04/19 05:13:29;;;;;;;2.93;2.30;;;;;;;6.89;50.89;101395.19;4967326;28;97066;-85
2022/04/19 05:15:58;;;;;;;2.40;2.30;;;;;;;6.85;50.73;101407.47;4964298;28;97152;-85
2022/04/19 05:18:24;;;;;;;2.90;2.37;;;;;;;6.82;50.91;101398.19;4967450;28;97327;-86
2022/04/19 05:20:49;;;;;;;3.90;2.60;;;;;;;6.82;51.01;101403.66;4969900;28;96907;-84
2022/04/19 05:23:15;;;;;;;2.87;2.20;;;;;;;6.82;50.96;101398.94;4968861;28;96847;-85
2022/04/19 05:25:40;;;;;;;3.93;2.63;;;;;;;6.85;51.16;101405.50;4977124;28;99461;-85
2022/04/19 05:28:06;;;;;;;3.47;2.43;;;;;;;6.87;51.17;101407.78;4970707;28;102497;-86
2022/04/19 05:30:31;;;;;;;11.30;2.77;;;;;;;6.91;51.05;101420.09;4979624;28;96562;-84
2022/04/19 05:32:56;;;;;;;2.87;2.07;;;;;;;6.95;50.96;101389.88;4992721;28;96933;-85
2022/04/19 05:35:22;;;;;;;3.20;2.20;;;;;;;6.97;51.03;101396.41;4971157;28;97040;-85
2022/04/19 05:37:47;;;;;;;2.33;2.10;;;;;;;7.00;51.10;101387.34;4965386;28;100644;-85
2022/04/19 05:40:14;;;;;;;1.97;1.87;;;;;;;7.06;51.16;101407.41;4979004;28;97027;-85
2022/04/19 05:42:39;;;;;;;1.90;1.80;;;;;;;7.09;51.16;101406.53;4970262;28;96528;-85
2022/04/19 05:45:05;;;;;;;2.03;1.83;;;;;;;7.15;51.25;101387.53;4991368;28;98811;-86
2022/04/19 05:47:31;;;;;;;2.37;2.20;;;;;;;7.19;51.18;101397.13;4964750;28;98534;-86
2022/04/19 05:49:57;;;;;;;2.40;2.20;;;;;;;7.25;51.09;101391.84;4970095;28;97037;-85
2022/04/19 05:52:22;;;;;;;2.57;2.37;;;;;;;7.29;51.25;101395.19;4970936;28;96970;-85
2022/04/19 05:54:47;;;;;;;1.93;1.80;;;;;;;7.34;51.20;101414.50;4972756;28;97476;-85
2022/04/19 05:57:13;;;;;;;2.03;1.80;;;;;;;7.40;51.24;101398.28;4966670;28;97739;-85
2022/04/19 05:59:38;;;;;;;2.67;2.30;;;;;;;7.44;51.59;101394.19;4965144;28;96676;-85
2022/04/19 06:04:54;;;;;;;2.30;2.10;;;;;;;7.52;51.38;101411.84;4969052;28;100309;-84
2022/04/19 06:07:19;;;;;;;1.90;1.80;;;;;;;7.54;51.24;101401.19;4988968;28;97219;-84
2022/04/19 06:09:45;;;;;;;6.40;2.07;;;;;;;7.62;51.28;101400.91;4975252;28;96884;-84
2022/04/19 06:12:10;;;;;;;2.50;1.90;;;;;;;7.70;51.51;101399.41;4974124;28;97071;-84
2022/04/19 06:14:36;;;;;;;2.03;1.87;;;;;;;7.78;51.41;101400.63;4978229;28;98471;-84
2022/04/19 06:17:02;;;;;;;1.70;1.60;;;;;;;7.85;51.27;101408.56;4981177;28;98322;-84
2022/04/19 06:19:27;;;;;;;1.87;1.77;;;;;;;7.92;51.17;101398.06;4976226;28;97182;-85
2022/04/19 06:21:53;;;;;;;1.40;1.27;;;;;;;8.00;51.12;101402.03;4972160;28;97282;-84
2022/04/19 06:24:18;;;;;;;2.13;1.93;;;;;;;8.10;50.92;101408.28;4988773;28;97004;-86
2022/04/19 06:26:44;;;;;;;2.17;2.00;;;;;;;8.09;50.71;101390.31;4980702;28;96980;-86
2022/04/19 06:29:10;;;;;;;2.93;2.00;;;;;;;8.24;51.03;101421.38;4970619;28;97248;-85
2022/04/19 06:31:35;;;;;;;2.50;1.50;;;;;;;8.34;50.83;101403.75;4969391;28;96840;-85
2022/04/19 06:34:01;;;;;;;2.83;1.47;;;;;;;8.42;50.92;101402.19;4973149;28;96882;-84
2022/04/19 06:36:27;;;;;;;1.50;1.40;;;;;;;8.53;50.65;101390.75;4972062;28;98286;-84
2022/04/19 06:38:52;;;;;;;6.00;1.93;;;;;;;8.63;50.86;101393.03;4965200;28;98196;-84
2022/04/19 06:41:20;;;;;;;1.53;1.40;;;;;;;8.76;50.69;101395.56;4968410;28;97063;-85
2022/04/19 06:43:46;;;;;;;1.43;1.33;;;;;;;8.88;50.19;101394.63;4968902;28;98163;-84
2022/04/19 06:46:15;;;;;;;1.33;1.10;;;;;;;8.95;50.28;101408.78;4969938;28;96974;-84
2022/04/19 06:48:40;;;;;;;2.30;1.40;;;;;;;9.05;50.16;101395.78;4974408;28;96968;-84
2022/04/19 06:51:05;;;;;;;1.20;1.10;;;;;;;9.18;50.08;101414.81;4968292;28;97308;-85
2022/04/19 06:53:31;;;;;;;2.47;1.50;;;;;;;9.33;49.73;101396.44;4974215;28;96834;-85
2022/04/19 06:55:56;;;;;;;1.40;1.27;;;;;;;9.46;49.55;101408.72;4972903;28;99732;-85
2022/04/19 06:58:22;;;;;;;1.40;1.30;;;;;;;9.62;49.39;101399.34;4972983;28;96656;-84
2022/04/19 07:00:48;;;;;;;1.53;1.43;;;;;;;9.73;49.04;101407.81;4970096;28;97008;-84
2022/04/19 07:03:13;;;;;;;1.30;1.30;;;;;;;9.88;48.72;101397.63;4982266;28;96977;-85
2022/04/19 07:05:39;;;;;;;1.90;1.57;;;;;;;10.03;48.73;101400.41;4960709;28;97343;-86
2022/04/19 07:08:07;;;;;;;1.53;1.43;;;;;;;10.10;48.49;101442.06;4975893;28;96982;-85
2022/04/19 07:10:33;;;;;;;2.23;1.50;;;;;;;10.13;47.92;101404.66;4967240;28;97391;-84
2022/04/19 07:12:59;;;;;;;1.43;1.23;;;;;;;10.27;47.78;101421.19;4970042;28;97016;-84
2022/04/19 07:15:25;;;;;;;1.67;1.57;;;;;;;10.39;47.52;101420.19;4967707;28;97945;-84
2022/04/19 07:17:50;;;;;;;1.10;1.10;;;;;;;10.54;47.14;101414.69;4979921;28;96780;-85
2022/04/19 07:28:33;;;;;;;2.63;1.40;;;;;;;11.01;45.38;101408.22;4972778;28;96573;-85
2022/04/19 07:30:59;;;;;;;2.10;1.17;;;;;;;11.17;44.71;101411.25;4974214;28;96828;-84
2022/04/19 07:33:24;;;;;;;2.10;1.30;;;;;;;11.31;44.97;101410.44;4962300;28;100612;-84
2022/04/19 07:35:52;;;;;;;1.40;1.20;;;;;;;11.46;43.79;101415.94;4969241;28;97406;-84
2022/04/19 07:38:18;;;;;;;1.50;1.40;;;;;;;11.65;44.41;101416.41;4971344;28;97157;-84
2022/04/19 07:40:44;;;;;;;0.90;0.90;;;;;;;11.80;43.71;101430.94;4968290;28;97371;-85
2022/04/19 07:43:09;;;;;;;1.00;0.90;;;;;;;11.98;44.12;101425.16;4976217;28;97619;-85
2022/04/19 07:45:35;;;;;;;2.60;0.93;;;;;;;12.17;43.88;101423.63;4969064;28;104935;-85
2022/04/19 07:48:00;;;;;;;3.07;1.40;;;;;;;12.34;43.12;101426.59;4971240;28;97144;-85
2022/04/19 07:50:26;;;;;;;4.00;1.20;;;;;;;12.42;42.88;101431.19;4970413;28;97218;-85
2022/04/19 07:52:51;;;;;;;1.90;1.10;;;;;;;12.49;41.53;101432.75;4968267;28;96877;-84
2022/04/19 07:55:17;;;;;;;1.43;0.90;;;;;;;12.60;42.61;101419.06;4973998;28;100394;-84
2022/04/19 07:57:42;;;;;;;1.73;1.00;;;;;;;12.80;42.51;101424.50;4971381;28;96829;-85
2022/04/19 08:00:08;;;;;;;1.73;1.10;;;;;;;12.94;41.71;101426.41;4966774;28;98334;-83
2022/04/19 08:02:33;;;;;;;2.20;0.93;;;;;;;12.99;41.42;101436.00;4972693;28;99404;-83
2022/04/19 08:04:59;;;;;;;1.73;1.00;;;;;;;13.08;41.70;101435.84;4975890;28;98462;-85
2022/04/19 08:07:24;;;;;;;1.50;1.40;;;;;;;13.26;41.34;101427.94;4974298;28;97129;-84
2022/04/19 08:09:50;;;;;;;1.37;1.20;;;;;;;13.43;41.42;101425.31;4971839;28;96849;-85
2022/04/19 08:12:15;;;;;;;1.00;1.00;;;;;;;13.48;40.13;101444.66;4971319;28;96883;-84
2022/04/19 08:14:43;;;;;;;1.63;1.13;;;;;;;13.50;39.75;101428.34;4973947;28;96868;-85
2022/04/19 08:17:09;;;;;;;1.00;1.00;;;;;;;13.57;40.28;101421.59;4959300;28;97223;-84
2022/04/19 08:19:34;;;;;;;1.20;1.10;;;;;;;13.72;40.01;101404.81;4969449;28;97065;-85
2022/04/19 08:22:00;;;;;;;1.20;1.10;;;;;;;13.81;39.67;101410.16;4972272;28;99135;-85
2022/04/19 08:24:25;;;;;;;1.67;1.23;;;;;;;14.00;40.08;101414.75;4974252;28;97164;-83
2022/04/19 08:26:51;;;;;;;1.30;1.20;;;;;;;14.08;39.13;101410.28;4967109;28;96702;-84
2022/04/19 08:29:16;;;;;;;0.90;0.90;;;;;;;14.13;38.96;101406.03;4970854;28;96829;-84
2022/04/19 08:31:41;;;;;;;1.53;1.17;;;;;;;14.17;38.35;101409.31;4970459;28;100432;-85
2022/04/19 08:34:07;;;;;;;2.73;1.13;;;;;;;14.24;39.00;101419.91;4985708;28;98679;-85
2022/04/19 08:36:34;;;;;;;1.10;1.07;;;;;;;14.33;38.64;101411.38;4963848;28;97016;-84
2022/04/19 08:39:00;;;;;;;2.20;1.10;;;;;;;14.31;37.48;101416.66;4974533;28;96979;-85
2022/04/19 08:41:25;;;;;;;1.97;1.17;;;;;;;14.34;37.83;101407.34;4977083;28;98798;-84
2022/04/19 08:43:52;;;;;;;0.80;0.70;;;;;;;14.51;38.09;101410.16;4968100;28;98000;-84
2022/04/19 08:46:19;;;;;;;0.90;0.90;;;;;;;14.64;36.72;101402.13;4970576;28;96593;-85
2022/04/19 08:48:44;;;;;;;1.47;0.90;;;;;;;14.90;38.20;101392.31;4975300;28;96647;-85
2022/04/19 08:51:12;;;;;;;1.33;0.60;;;;;;;15.25;38.07;101394.53;4970540;28;98014;-86
2022/04/19 08:59:06;;;;;;;0.80;0.80;;;;;;;15.74;37.03;101396.47;4979687;28;97014;-85
2022/04/19 09:01:34;;;;;;;1.23;0.70;;;;;;;15.86;35.91;101408.25;4972831;28;99380;-85
2022/04/19 09:04:04;;;;;;;0.60;0.60;;;;;;;15.93;36.79;101407.75;4990628;28;96875;-84
2022/04/19 09:06:48;;;;;;;1.07;0.80;;;;;;;16.26;34.71;101404.03;4976404;28;96889;-84
2022/04/19 09:09:14;;;;;;;0.50;0.50;;;;;;;16.45;36.54;101413.25;4975066;28;97126;-85
2022/04/19 09:11:39;;;;;;;0.70;0.70;;;;;;;16.54;34.96;101412.22;4969552;28;99771;-84
2022/04/19 09:14:06;;;;;;;0.60;0.60;;;;;;;16.65;35.82;101414.94;4979282;28;99262;-85
2022/04/19 09:16:31;;;;;;;1.07;0.70;;;;;;;16.73;35.14;101413.84;4965502;28;97292;-85
2022/04/19 09:18:57;;;;;;;0.60;0.50;;;;;;;16.82;35.65;101423.94;4973549;28;96867;-84
2022/04/19 09:21:35;;;;;;;0.90;0.67;;;;;;;16.85;34.25;101411.75;4965946;28;97739;-85
2022/04/19 09:24:00;;;;;;;0.70;0.70;;;;;;;17.12;35.60;101413.56;4965885;28;100610;-84
2022/04/19 09:26:42;;;;;;;0.70;0.70;;;;;;;17.30;31.74;101406.56;4968543;28;96987;-84
2022/04/19 09:29:24;;;;;;;2.50;0.70;;;;;;;17.33;30.91;101417.41;4958762;28;96887;-85
2022/04/19 09:31:57;;;;;;;0.70;0.60;;;;;;;17.41;34.07;101409.25;4961471;28;102823;-86
2022/04/19 09:34:32;;;;;;;1.07;0.73;;;;;;;17.41;32.35;101400.91;4968824;28;98452;-83
2022/04/19 09:37:10;;;;;;;0.60;0.60;;;;;;;17.38;31.23;101401.94;4969245;28;96999;-83
2022/04/19 09:39:37;;;;;;;1.63;0.93;;;;;;;17.41;33.70;101415.53;4973161;28;97167;-84
2022/04/19 09:42:08;;;;;;;0.73;0.73;;;;;;;17.42;33.73;101414.28;4961586;28;98819;-85
2022/04/19 09:44:58;;;;;;;0.70;0.70;;;;;;;17.45;28.50;101406.91;4968470;28;97139;-81
2022/04/19 09:47:24;;;;;;;0.70;0.70;;;;;;;17.34;32.59;101418.91;4982132;28;98388;-85
2022/04/19 09:49:53;;;;;;;0.70;0.67;;;;;;;17.35;33.20;101412.06;4969477;28;96910;-84
2022/04/19 09:52:21;;;;;;;1.00;0.40;;;;;;;17.34;32.49;101407.78;4971906;28;98944;-85
2022/04/19 09:55:09;;;;;;;0.60;0.60;;;;;;;17.29;30.17;101413.38;4968034;28;97012;-85
2022/04/19 09:57:38;;;;;;;0.93;0.47;;;;;;;17.32;33.31;101410.31;4968593;28;96941;-85
2022/04/19 10:00:06;;;;;;;0.60;0.50;;;;;;;17.33;32.86;101411.06;4967377;28;97137;-83
2022/04/19 10:08:11;;;;;;;0.80;0.80;;;;;;;17.86;32.62;101407.47;4964787;28;97004;-84
2022/04/19 10:10:40;;;;;;;1.17;0.60;;;;;;;17.74;31.83;101394.97;4974067;28;96792;-83
2022/04/19 10:13:06;;;;;;;0.60;0.50;;;;;;;17.81;32.71;101397.91;4972530;28;96828;-84
2022/04/19 10:15:37;;;;;;;1.33;0.60;;;;;;;17.82;31.37;101393.84;4968072;28;97081;-90
2022/04/19 10:18:07;;;;;;;1.03;0.83;;;;;;;17.81;29.83;101395.13;4965672;28;96965;-84
2022/04/19 10:20:42;;;;;;;0.70;0.57;;;;;;;17.64;28.68;101397.38;4964463;28;97050;-87
2022/04/19 10:23:10;;;;;;;0.60;0.60;;;;;;;17.69;31.82;101393.75;4959658;28;97310;-84
2022/04/19 10:25:40;;;;;;;1.90;0.63;;;;;;;17.68;30.99;101391.50;4967457;28;97218;-83
2022/04/19 10:28:07;;;;;;;1.40;0.60;;;;;;;17.74;31.80;101398.50;4978388;28;97269;-85
2022/04/19 10:30:35;;;;;;;0.87;0.70;;;;;;;17.79;31.36;101397.69;4982941;28;96767;-85
2022/04/19 10:33:00;;;;;;;0.67;0.53;;;;;;;17.94;31.61;101388.91;4953375;28;101048;-85
2022/04/19 10:35:26;;;;;;;0.90;0.57;;;;;;;18.17;31.68;101395.69;4969090;28;96744;-84
2022/04/19 10:38:20;;;;;;;0.70;0.70;;;;;;;18.48;27.43;101371.94;4968037;28;96897;-84
2022/04/19 10:40:50;;;;;;;0.50;0.40;;;;;;;18.65;30.18;101375.97;4969639;28;99840;-84
2022/04/19 10:43:15;;;;;;;0.60;0.50;;;;;;;18.89;30.38;101377.91;4967077;28;97948;-86
2022/04/19 10:45:47;;;;;;;0.60;0.60;;;;;;;19.06;29.09;101374.81;4967373;28;98311;-85
2022/04/19 10:48:14;;;;;;;1.43;0.50;;;;;;;18.93;28.49;101388.72;4954398;28;96769;-83
2022/04/19 10:50:40;;;;;;;0.60;0.50;;;;;;;18.88;29.46;101379.16;4969919;28;96904;-87
2022/04/19 10:53:10;;;;;;;0.73;0.60;;;;;;;18.90;27.37;101382.16;4974921;28;96874;-84
2022/04/19 10:55:57;;;;;;;1.07;0.70;;;;;;;18.91;26.36;101375.31;4970765;28;98324;-85
2022/04/19 10:58:44;;;;;;;0.87;0.40;;;;;;;19.02;26.80;101372.34;4965161;28;97636;-83
2022/04/19 11:01:31;;;;;;;0.57;0.47;;;;;;;19.28;26.83;101386.31;4954465;28;97507;-84
2022/04/19 11:03:57;;;;;;;1.17;0.73;;;;;;;19.27;27.22;101390.38;4965110;28;100358;-85
2022/04/19 11:06:38;;;;;;;1.50;0.60;;;;;;;19.48;26.08;101375.84;4966522;28;97678;-85
2022/04/19 11:09:21;;;;;;;1.17;0.53;;;;;;;19.71;24.24;101379.69;4968819;28;97263;-83
2022/04/19 11:11:54;;;;;;;0.50;0.50;;;;;;;19.88;26.77;101374.50;4977473;28;97317;-87
2022/04/19 11:14:30;;;;;;;0.63;0.47;;;;;;;20.08;27.54;101384.97;4972959;28;97331;-83
2022/04/19 11:17:28;;;;;;;0.83;0.37;;;;;;;20.14;23.24;101371.63;4973033;28;101280;-85
2022/04/19 11:19:56;;;;;;;0.80;0.60;;;;;;;20.11;26.45;101372.75;4972767;28;96620;-84
2022/04/19 11:22:29;;;;;;;0.80;0.50;;;;;;;20.36;27.04;101387.19;4961542;28;97581;-84
2022/04/19 11:25:00;;;;;;;0.60;0.40;;;;;;;20.53;26.04;101362.41;4967308;28;99161;-86
2022/04/19 11:27:53;;;;;;;0.60;0.40;;;;;;;20.82;25.88;101359.13;4975290;28;99494;-82
2022/04/19 11:30:23;;;;;;;4.83;0.67;;;;;;;21.23;27.32;101369.50;4978810;28;97197;-85
2022/04/19 11:32:58;;;;;;;1.03;0.43;;;;;;;21.39;23.81;101359.16;4970490;28;97055;-84
2022/04/19 11:35:26;;;;;;;0.60;0.50;;;;;;;21.17;25.45;101357.72;4964526;28;98997;-85
2022/04/19 11:37:52;;;;;;;1.33;0.50;;;;;;;21.06;26.38;101358.03;4987772;28;97732;-84
2022/04/19 11:48:52;;;;;;;0.60;0.50;;;;;;;21.17;24.00;101362.56;4967944;28;101739;-85
2022/04/19 11:51:20;;;;;;;0.60;0.50;;;;;;;21.05;25.07;101352.97;4964783;28;96845;-84
2022/04/19 11:53:46;;;;;;;0.77;0.53;;;;;;;20.98;25.60;101351.59;4968584;28;97636;-84
2022/04/19 11:56:11;;;;;;;0.67;0.60;;;;;;;20.96;25.87;101339.44;4965756;28;99555;-84
2022/04/19 11:58:41;;;;;;;0.80;0.60;;;;;;;21.20;25.37;101353.09;4965912;28;97601;-84
2022/04/19 12:01:08;;;;;;;0.50;0.40;;;;;;;21.44;25.70;101345.03;4966584;28;96936;-84
2022/04/19 12:03:38;;;;;;;0.60;0.40;;;;;;;21.74;25.05;101340.84;4971453;28;96914;-84
2022/04/19 12:06:18;;;;;;;0.60;0.50;;;;;;;22.02;20.80;101344.34;4987890;28;99591;-83
2022/04/19 12:08:46;;;;;;;0.70;0.60;;;;;;;21.88;24.99;101345.81;4970057;28;97439;-83
2022/04/19 12:11:16;;;;;;;1.53;0.50;;;;;;;21.95;25.22;101342.28;4976493;28;96951;-85